Aeroporto :
LOGIN :

Iscrizione | Disclaimer

   EN    FR    IT 

 










Sommario :    VFR   VFR Marginale   IFR   IFR Intensivo   IFR Molto Intensivo
Visibilità : 
Base nubi : 
>= 8 km
>= 3000ft
5 / 8 km
1000 / 3000 ft
1500m / 5 km
500 / 1000 ft
800 / 1500m
200 / 500 ft
< 800m
< 200 ft
Simboli :   Temporali  Nebbia  Neve Forte  Precipitazioni Forti  Vento > 20 kt
SIGMETs :   Varie  Temporali  Ghiacco  Turbolenza  Onda orograficha  Ceneri Vulcaniche






- Altitudine del aeroporto : 1906 ft
- Codice IATA : INN


LOWI - Innsbruck

ULTIMO METAR :
  • 270820Z VRB01KT 4000 -SN BR FEW004 SCT006 BKN009 01/M00 Q0992 NOSIG

METARs OBSOLETI :
  • 270750Z VRB02KT 4000 -SN BR SCT004 SCT007 BKN015 00/M00 Q0992 TEMPO BKN006
  • 270720Z 11003KT 4000 -SN BR SCT004 SCT009 BKN020 00/M00 Q0992 TEMPO BKN005
  • 270650Z 08004KT 3000 -SN BR FEW004 SCT006 BKN015 00/M00 Q0992 TEMPO BKN007
  • 270620Z 09004KT 4000 -SN FEW004 SCT006 BKN015 00/M00 Q0992 TEMPO BKN005
  • 270550Z 10004KT 4000 -SN BR FEW004 SCT005 BKN007 00/M00 Q0992 TEMPO BKN004

TAF TAF LOWI
Valido dal 27 a 06 ore il 28 a 06 ore UTC


270515Z 2706/2806 VRB02KT 5000 SCT010 BKN020 TX02/2713Z TN00/2706Z
TEMPO 2706/2709 2000 SN VV010
PROB30
TEMPO 2706/2708 1200 BKN004
TEMPO 2709/2714 1500 SN RASN VV009
TEMPO 2714/2806 1500 SN VV007
PROB40
TEMPO 2719/2806 1000 SN VV005



MetMap, La meteo Aeronautica in un colpo d'occhio ! - Copyright ORBIFLY Dicembre 2007 - Disclaimer

ORBIFLY MET'MAP TEAM :

Programmazione e sviluppo : Alexandra Zaïnal
Concezione : Baudouin d'Aumeries
Aiuto per la programmazione : Marc-Olivier Méhu
Supporto tecnico e logistico : Manuel Goepfert
Aiuto per la traduzione : Arnaldo La Scala

Contatto : metmap@orbifly.com




FONTI E CREDITI :

   NOAA